Time;durP1;ratioP1;P1;durP2;ratioP2;P2;SDS_P1;SDS_P2;PMS_P1;PMS_P2;Temp;Humidity;BMP_temperature;BMP_pressure;BME280_temperature;BME280_humidity;BME280_pressure;Samples;Min_cycle;Max_cycle;Signal;HPM_P1;HPM_P2
2023/12/27 00:00:55;;;;;;;;;19.25;18.00;;;;;5.78;85.49;102092.31;4941727;28;11579;-66
2023/12/27 00:03:21;;;;;;;;;23.00;19.25;;;;;5.77;85.47;102083.44;4956308;28;11689;-67
2023/12/27 00:05:48;;;;;;;;;21.00;19.00;;;;;5.76;85.34;102083.59;4938760;28;12319;-68
2023/12/27 00:08:14;;;;;;;;;19.00;18.25;;;;;5.74;85.31;102085.53;4956038;28;11532;-68
2023/12/27 00:10:41;;;;;;;;;17.50;17.25;;;;;5.72;85.12;102083.00;4955274;28;11550;-68
2023/12/27 00:13:07;;;;;;;;;15.25;15.25;;;;;5.70;85.31;102082.28;4940662;28;11532;-68
2023/12/27 00:15:34;;;;;;;;;24.00;20.00;;;;;5.66;85.05;102081.69;4955526;28;11567;-68
2023/12/27 00:18:01;;;;;;;;;19.25;18.00;;;;;5.64;85.72;102077.47;4955551;28;11546;-68
2023/12/27 00:20:28;;;;;;;;;21.75;20.00;;;;;5.63;86.10;102071.28;4955736;28;11546;-68
2023/12/27 00:22:54;;;;;;;;;20.50;20.00;;;;;5.63;85.99;102081.09;4955372;28;11567;-68
2023/12/27 00:25:20;;;;;;;;;21.75;20.75;;;;;5.61;85.79;102075.06;4939272;28;11620;-68
2023/12/27 00:27:47;;;;;;;;;14.50;14.50;;;;;5.59;85.56;102077.88;4952475;28;11555;-68
2023/12/27 00:30:13;;;;;;;;;19.50;17.00;;;;;5.57;85.65;102070.97;4953007;28;11574;-68
2023/12/27 00:32:40;;;;;;;;;22.00;20.25;;;;;5.56;85.67;102062.09;4939297;28;11557;-68
2023/12/27 00:35:08;;;;;;;;;22.50;21.25;;;;;5.55;85.84;102057.75;4954708;28;11597;-66
2023/12/27 00:37:34;;;;;;;;;19.50;15.75;;;;;5.54;85.67;102063.22;4924057;28;11569;-67
2023/12/27 00:40:01;;;;;;;;;24.50;16.50;;;;;5.52;85.79;102049.16;4940488;28;11691;-67
2023/12/27 00:42:27;;;;;;;;;20.25;16.25;;;;;5.51;86.12;102058.13;4940016;28;11575;-67
2023/12/27 00:44:54;;;;;;;;;18.50;15.25;;;;;5.51;86.11;102063.47;4951356;28;11586;-66
2023/12/27 00:47:21;;;;;;;;;20.75;19.25;;;;;5.50;85.49;102069.78;4934009;28;11574;-68
2023/12/27 00:49:48;;;;;;;;;20.00;17.75;;;;;5.47;85.55;102070.91;4931754;28;11586;-67
2023/12/27 00:52:14;;;;;;;;;18.00;16.75;;;;;5.44;85.34;102068.50;4928517;28;11587;-68
2023/12/27 00:54:42;;;;;;;;;21.50;18.75;;;;;5.43;85.86;102062.31;4927345;28;11561;-68
2023/12/27 00:57:08;;;;;;;;;17.00;15.00;;;;;5.42;85.74;102059.75;4926460;28;11524;-67
2023/12/27 00:59:35;;;;;;;;;16.00;14.50;;;;;5.43;85.79;102056.13;4947339;28;11593;-67
2023/12/27 01:02:02;;;;;;;;;16.75;15.00;;;;;5.44;85.99;102057.81;4932778;28;11561;-67
2023/12/27 01:04:29;;;;;;;;;19.50;15.25;;;;;5.46;86.23;102067.38;4953971;28;12239;-67
2023/12/27 01:06:56;;;;;;;;;21.25;17.25;;;;;5.46;85.82;102067.38;4943377;28;11650;-67
2023/12/27 01:09:22;;;;;;;;;19.25;18.00;;;;;5.45;85.63;102055.00;4944206;28;11557;-68
2023/12/27 01:11:49;;;;;;;;;18.25;16.75;;;;;5.48;86.09;102063.75;4942360;28;11568;-68
2023/12/27 01:14:16;;;;;;;;;13.25;13.25;;;;;5.49;86.01;102060.09;4936184;28;12284;-67
2023/12/27 01:16:43;;;;;;;;;16.25;16.25;;;;;5.52;86.24;102065.19;4934041;28;12294;-67
2023/12/27 01:19:10;;;;;;;;;17.50;17.00;;;;;5.55;86.36;102070.22;4930090;28;11705;-68
2023/12/27 01:21:37;;;;;;;;;19.25;18.25;;;;;5.57;86.08;102062.94;4934542;28;11566;-68
2023/12/27 01:24:04;;;;;;;;;21.75;18.50;;;;;5.59;86.22;102059.19;4951802;28;11632;-67
2023/12/27 01:26:31;;;;;;;;;19.25;14.50;;;;;5.60;86.18;102055.53;4932469;28;11578;-67
2023/12/27 01:28:58;;;;;;;;;19.75;19.75;;;;;5.61;86.36;102054.53;4929623;28;11593;-67
2023/12/27 01:31:25;;;;;;;;;18.50;18.50;;;;;5.64;86.44;102042.75;4945895;28;11563;-67
2023/12/27 01:33:52;;;;;;;;;19.75;18.75;;;;;5.63;85.98;102038.38;4953118;28;11565;-66
2023/12/27 01:36:22;;;;;;;;;15.50;15.00;;;;;5.60;86.16;102030.66;4936578;28;11575;-68
2023/12/27 01:38:49;;;;;;;;;27.75;21.75;;;;;5.57;86.20;102031.75;4933784;28;11677;-68
2023/12/27 01:41:15;;;;;;;;;23.25;20.25;;;;;5.58;86.13;102037.94;4928541;28;11614;-67
2023/12/27 01:43:42;;;;;;;;;15.25;13.50;;;;;5.55;86.40;102046.19;4942849;28;11579;-67
2023/12/27 01:46:09;;;;;;;;;23.25;21.75;;;;;5.54;86.24;102047.19;4946712;28;11586;-68
2023/12/27 01:48:36;;;;;;;;;21.25;19.75;;;;;5.51;86.52;102055.44;4933179;28;11559;-67
2023/12/27 01:51:03;;;;;;;;;23.75;21.00;;;;;5.48;86.03;102059.25;4933892;28;11560;-67
2023/12/27 01:53:30;;;;;;;;;21.25;19.00;;;;;5.44;86.26;102056.00;4948142;28;12292;-68
2023/12/27 01:55:58;;;;;;;;;15.75;15.75;;;;;5.45;87.04;102057.69;4929982;28;11552;-68
2023/12/27 01:58:26;;;;;;;;;17.00;16.50;;;;;5.48;86.87;102055.72;4928727;28;11562;-68
2023/12/27 02:00:53;;;;;;;;;24.75;20.75;;;;;5.51;86.82;102058.13;4930569;28;11674;-68
2023/12/27 02:03:21;;;;;;;;;20.00;17.25;;;;;5.50;86.25;102056.44;4924848;28;11605;-67
2023/12/27 02:05:51;;;;;;;;;19.00;19.00;;;;;5.50;86.67;102056.44;4950541;28;11694;-68
2023/12/27 02:08:18;;;;;;;;;22.50;20.00;;;;;5.49;86.98;102057.41;4953228;28;11559;-68
2023/12/27 02:10:48;;;;;;;;;19.50;17.25;;;;;5.52;86.41;102062.50;4934461;28;11612;-68
2023/12/27 02:13:14;;;;;;;;;19.50;18.25;;;;;5.52;86.46;102049.16;4935596;28;11618;-66
2023/12/27 02:15:41;;;;;;;;;16.75;15.00;;;;;5.51;86.66;102050.97;4935152;28;11560;-68
2023/12/27 02:18:10;;;;;;;;;9.50;9.50;;;;;5.52;86.46;102043.81;4935791;28;11616;-67
2023/12/27 02:20:37;;;;;;;;;23.00;19.75;;;;;5.53;87.05;102043.66;4935225;28;11569;-67
2023/12/27 02:23:07;;;;;;;;;20.75;19.00;;;;;5.55;87.06;102043.53;4935856;28;11583;-68
2023/12/27 02:25:34;;;;;;;;;20.50;18.00;;;;;5.57;86.40;102042.44;4934288;28;11563;-68
2023/12/27 02:28:01;;;;;;;;;15.50;15.00;;;;;5.58;86.38;102035.25;4940697;29;11576;-66
2023/12/27 02:30:27;;;;;;;;;20.00;16.00;;;;;5.58;86.86;102029.91;4930704;28;11712;-68
2023/12/27 02:32:54;;;;;;;;;19.50;19.00;;;;;5.59;87.18;102027.13;4952012;28;11603;-68
2023/12/27 02:35:21;;;;;;;;;19.25;18.00;;;;;5.61;86.95;102027.00;4951298;28;12300;-67
2023/12/27 02:37:48;;;;;;;;;18.00;17.00;;;;;5.59;86.65;102026.25;4950843;28;11574;-67
2023/12/27 02:40:14;;;;;;;;;17.75;17.75;;;;;5.59;86.82;102026.25;4932387;28;11594;-68
2023/12/27 02:42:41;;;;;;;;;18.00;17.75;;;;;5.59;86.74;102021.78;4917459;28;12527;-67
2023/12/27 02:45:08;;;;;;;;;15.00;14.75;;;;;5.59;87.09;102011.09;4934047;28;11567;-67
2023/12/27 02:47:34;;;;;;;;;17.00;16.25;;;;;5.57;86.48;102010.38;4951422;28;11560;-68
2023/12/27 02:50:01;;;;;;;;;20.25;19.25;;;;;5.55;86.35;102004.34;4935339;28;11583;-68
2023/12/27 02:52:27;;;;;;;;;22.00;19.50;;;;;5.53;87.27;101997.44;4952088;28;11702;-67
2023/12/27 02:54:55;;;;;;;;;22.50;19.00;;;;;5.53;87.40;101992.94;4918831;28;11579;-67
2023/12/27 02:57:23;;;;;;;;;20.50;17.00;;;;;5.52;87.17;101999.25;4935267;28;11551;-68
2023/12/27 02:59:49;;;;;;;;;21.00;16.75;;;;;5.52;87.41;101995.75;4934185;28;11721;-68
2023/12/27 03:02:16;;;;;;;;;18.00;18.00;;;;;5.51;87.13;101986.88;4935004;28;11568;-68
2023/12/27 03:04:42;;;;;;;;;16.00;16.00;;;;;5.53;86.93;101989.41;4935003;28;11576;-68
2023/12/27 03:07:09;;;;;;;;;16.50;15.50;;;;;5.56;87.63;101986.47;4951702;28;11647;-68
2023/12/27 03:09:35;;;;;;;;;19.50;19.00;;;;;5.56;87.42;101998.00;4952312;28;11730;-68
2023/12/27 03:12:02;;;;;;;;;16.50;14.00;;;;;5.56;86.96;101999.84;4934207;28;11575;-66
2023/12/27 03:14:29;;;;;;;;;15.75;15.25;;;;;5.57;87.45;101982.81;4951895;28;11558;-68
2023/12/27 03:16:55;;;;;;;;;12.25;10.25;;;;;5.59;87.44;101970.16;4934990;28;12401;-68
2023/12/27 03:19:22;;;;;;;;;12.50;12.50;;;;;5.58;87.30;101966.66;4934136;28;11551;-66
2023/12/27 03:21:49;;;;;;;;;12.00;12.00;;;;;5.57;87.51;101956.13;4950354;28;11558;-68
2023/12/27 03:24:16;;;;;;;;;16.75;16.75;;;;;5.55;87.02;101958.06;4949998;28;11614;-68
2023/12/27 03:26:43;;;;;;;;;17.00;14.25;;;;;5.56;87.94;101957.09;4934742;28;12314;-66
2023/12/27 03:29:11;;;;;;;;;14.00;14.00;;;;;5.56;87.26;101957.94;4930430;28;12284;-68
2023/12/27 03:31:38;;;;;;;;;22.00;17.50;;;;;5.53;87.25;101952.88;4952064;29;11569;-67
2023/12/27 03:34:04;;;;;;;;;18.50;15.50;;;;;5.50;87.40;101954.94;4934507;29;11539;-68
2023/12/27 03:36:31;;;;;;;;;13.50;13.25;;;;;5.52;87.39;101950.34;4936990;29;11558;-67
2023/12/27 03:38:58;;;;;;;;;22.50;16.50;;;;;5.52;88.23;101953.84;4933219;29;11644;-65
2023/12/27 03:41:24;;;;;;;;;22.50;20.50;;;;;5.52;87.71;101953.00;4947913;29;11689;-68
2023/12/27 03:43:54;;;;;;;;;14.25;12.75;;;;;5.54;87.90;101951.88;4951338;29;12373;-67
2023/12/27 03:46:21;;;;;;;;;16.75;15.50;;;;;5.51;87.38;101941.50;4934459;28;11556;-66
2023/12/27 03:48:48;;;;;;;;;14.75;14.50;;;;;5.48;87.28;101935.56;4950714;29;11585;-67
2023/12/27 03:51:14;;;;;;;;;15.50;12.50;;;;;5.47;88.26;101929.38;4951000;29;11550;-68
2023/12/27 03:53:41;;;;;;;;;15.50;13.25;;;;;5.50;88.19;101925.56;4945262;29;11662;-68
2023/12/27 03:56:10;;;;;;;;;12.75;12.25;;;;;5.48;88.40;101914.19;4934253;28;12413;-66
2023/12/27 03:58:37;;;;;;;;;13.50;12.00;;;;;5.51;88.03;101920.13;4951885;29;11555;-68
2023/12/27 04:01:03;;;;;;;;;10.50;10.50;;;;;5.54;87.98;101922.50;4934651;29;11601;-68
2023/12/27 04:03:30;;;;;;;;;11.75;11.75;;;;;5.53;88.19;101918.16;4934715;29;11668;-67
2023/12/27 04:05:58;;;;;;;;;15.00;13.00;;;;;5.53;88.44;101915.47;4933775;29;12249;-68
2023/12/27 04:08:25;;;;;;;;;16.00;11.75;;;;;5.52;88.49;101913.78;4932245;29;11554;-68
2023/12/27 04:10:51;;;;;;;;;12.75;12.00;;;;;5.51;87.89;101909.44;4933026;29;11564;-68
2023/12/27 04:13:18;;;;;;;;;13.50;11.00;;;;;5.53;88.19;101901.28;4934478;29;11520;-66
2023/12/27 04:15:44;;;;;;;;;13.25;12.00;;;;;5.50;88.07;101890.84;4951517;29;11548;-68
2023/12/27 04:18:12;;;;;;;;;15.50;12.25;;;;;5.42;88.47;101889.69;4933747;28;11551;-67
2023/12/27 04:20:40;;;;;;;;;12.25;12.25;;;;;5.42;89.02;101889.69;4934107;29;11551;-67
2023/12/27 04:23:07;;;;;;;;;16.00;12.25;;;;;5.43;88.90;101893.25;4933155;29;11560;-68
2023/12/27 04:25:33;;;;;;;;;10.50;10.50;;;;;5.44;88.51;101887.75;4951062;29;11536;-68
2023/12/27 04:28:01;;;;;;;;;18.00;14.25;;;;;5.46;88.94;101877.78;4934896;28;11503;-64
2023/12/27 04:30:28;;;;;;;;;8.25;8.25;;;;;5.45;89.11;101875.25;4951597;29;11549;-65
2023/12/27 04:32:54;;;;;;;;;21.75;17.75;;;;;5.44;89.01;101866.41;4915723;28;11506;-66
2023/12/27 04:35:21;;;;;;;;;15.00;12.25;;;;;5.45;89.27;101857.41;4946535;29;12349;-66
2023/12/27 04:37:48;;;;;;;;;18.75;15.75;;;;;5.45;89.31;101859.22;4950662;28;11549;-66
2023/12/27 04:40:14;;;;;;;;;13.75;12.25;;;;;5.45;89.23;101860.06;4935710;28;12356;-67
2023/12/27 04:42:41;;;;;;;;;17.00;12.00;;;;;5.46;88.92;101852.91;4937676;28;11547;-65
2023/12/27 04:45:08;;;;;;;;;16.00;13.00;;;;;5.46;89.26;101850.22;4953502;28;11688;-65
2023/12/27 04:47:35;;;;;;;;;16.50;16.00;;;;;5.48;89.04;101855.44;4936557;28;11576;-67
2023/12/27 04:50:01;;;;;;;;;21.25;15.25;;;;;5.47;89.57;101849.28;4937675;28;12405;-66
2023/12/27 04:52:28;;;;;;;;;14.75;12.25;;;;;5.49;89.25;101851.78;4921492;28;11607;-65
2023/12/27 04:54:54;;;;;;;;;13.50;11.25;;;;;5.50;89.08;101845.47;4953460;28;11653;-65
2023/12/27 04:57:21;;;;;;;;;21.75;19.75;;;;;5.44;89.28;101834.34;4937363;28;11536;-64
2023/12/27 04:59:47;;;;;;;;;17.75;14.00;;;;;5.45;89.52;101830.69;4937304;28;11569;-65
2023/12/27 05:02:14;;;;;;;;;21.25;14.75;;;;;5.44;89.55;101834.34;4936058;28;11552;-65
2023/12/27 05:04:40;;;;;;;;;23.50;19.00;;;;;5.42;89.98;101827.44;4954255;28;11554;-64
2023/12/27 05:07:08;;;;;;;;;12.00;12.00;;;;;5.48;90.25;101826.91;4918809;28;11568;-64
2023/12/27 05:09:34;;;;;;;;;11.75;11.75;;;;;5.52;90.38;101831.00;4954162;28;12247;-65
2023/12/27 05:12:02;;;;;;;;;9.00;8.50;;;;;5.56;90.32;101824.41;4954505;28;12355;-65
2023/12/27 05:14:29;;;;;;;;;14.50;12.50;;;;;5.58;89.95;101822.44;4952879;28;11484;-64
2023/12/27 05:16:55;;;;;;;;;12.25;12.25;;;;;5.54;90.54;101805.00;4921386;28;11619;-63
2023/12/27 05:19:22;;;;;;;;;12.75;11.75;;;;;5.53;90.02;101802.47;4935586;28;11536;-65
2023/12/27 05:21:49;;;;;;;;;14.75;11.00;;;;;5.56;90.84;101797.69;4954100;28;11564;-64
2023/12/27 05:24:16;;;;;;;;;14.25;11.75;;;;;5.58;90.58;101793.03;4936873;28;11551;-66
2023/12/27 05:26:42;;;;;;;;;9.50;9.50;;;;;5.58;90.29;101786.88;4935307;28;12398;-65
2023/12/27 05:29:10;;;;;;;;;12.50;10.75;;;;;5.56;90.25;101783.50;4949483;28;11552;-64
2023/12/27 05:31:36;;;;;;;;;10.50;10.50;;;;;5.55;90.62;101782.66;4947346;28;11564;-65
2023/12/27 05:34:03;;;;;;;;;16.50;15.00;;;;;5.50;90.58;101776.88;4936823;28;12297;-64
2023/12/27 05:36:30;;;;;;;;;11.75;11.00;;;;;5.53;91.40;101775.75;4953894;28;11556;-64
2023/12/27 05:38:56;;;;;;;;;12.50;12.00;;;;;5.58;91.50;101785.03;4953406;28;11557;-65
2023/12/27 05:41:25;;;;;;;;;16.75;15.00;;;;;5.58;91.26;101781.53;4931983;28;11622;-64
2023/12/27 05:43:53;;;;;;;;;12.00;9.75;;;;;5.55;91.73;101779.13;4953982;28;12245;-64
2023/12/27 05:46:20;;;;;;;;;14.00;12.25;;;;;5.58;91.95;101774.34;4953581;28;11480;-64
2023/12/27 05:48:47;;;;;;;;;16.00;15.00;;;;;5.54;92.33;101769.44;4936524;28;11574;-66
2023/12/27 05:51:13;;;;;;;;;17.50;14.25;;;;;5.57;91.96;101766.50;4952937;28;11702;-64
2023/12/27 05:53:40;;;;;;;;;18.25;14.25;;;;;5.55;91.64;101771.97;4936348;28;11623;-64
2023/12/27 05:56:06;;;;;;;;;16.00;13.75;;;;;5.60;91.64;101774.22;4951569;28;11606;-64
2023/12/27 05:58:33;;;;;;;;;12.25;12.25;;;;;5.60;92.03;101764.38;4953737;28;11537;-66
2023/12/27 06:00:59;;;;;;;;;18.00;15.50;;;;;5.57;92.25;101758.47;4936633;28;11573;-66
2023/12/27 06:03:26;;;;;;;;;20.00;17.75;;;;;5.60;92.20;101758.22;4953538;28;11559;-65
2023/12/27 06:05:53;;;;;;;;;25.25;23.25;;;;;5.56;91.99;101751.47;4953016;28;11562;-65
2023/12/27 06:08:21;;;;;;;;;19.75;19.00;;;;;5.56;92.05;101748.78;4954133;28;11565;-66
2023/12/27 06:10:47;;;;;;;;;19.50;19.50;;;;;5.54;92.70;101750.75;4951720;28;11604;-65
2023/12/27 06:13:14;;;;;;;;;18.75;16.00;;;;;5.57;92.07;101747.78;4953248;28;11572;-65
2023/12/27 06:15:40;;;;;;;;;19.50;17.00;;;;;5.56;92.53;101749.63;4935115;28;11557;-64
2023/12/27 06:18:07;;;;;;;;;15.75;15.00;;;;;5.58;93.09;101741.47;4953112;28;12554;-64
2023/12/27 06:20:34;;;;;;;;;21.75;18.50;;;;;5.60;92.06;101731.50;4952316;28;11665;-65
2023/12/27 06:23:00;;;;;;;;;18.25;17.00;;;;;5.59;92.75;101732.47;4945287;28;11559;-65
2023/12/27 06:25:27;;;;;;;;;19.00;18.75;;;;;5.59;92.13;101728.00;4952541;28;11538;-65
2023/12/27 06:27:54;;;;;;;;;19.75;17.00;;;;;5.59;92.67;101716.44;4951952;28;11654;-64
2023/12/27 06:30:21;;;;;;;;;22.75;17.00;;;;;5.60;92.61;101704.78;4951347;28;11564;-64
2023/12/27 06:32:48;;;;;;;;;21.50;18.00;;;;;5.62;92.20;101703.66;4952924;28;12312;-65
2023/12/27 06:35:14;;;;;;;;;16.75;13.00;;;;;5.64;92.67;101690.16;4950374;28;11541;-65
2023/12/27 06:37:41;;;;;;;;;21.75;17.00;;;;;5.60;92.44;101684.25;4952459;28;11589;-69
2023/12/27 06:40:10;;;;;;;;;18.00;15.75;;;;;5.65;92.51;101674.00;4952884;28;11547;-64
2023/12/27 06:42:36;;;;;;;;;18.75;18.75;;;;;5.63;92.74;101678.66;4935371;28;11585;-65
2023/12/27 06:45:03;;;;;;;;;22.25;17.75;;;;;5.55;92.68;101674.97;4952636;28;11671;-65
2023/12/27 06:47:30;;;;;;;;;17.25;17.25;;;;;5.54;92.74;101668.78;4932969;28;11687;-65
2023/12/27 06:49:56;;;;;;;;;17.50;16.75;;;;;5.47;93.32;101667.69;4952838;28;11564;-65
2023/12/27 06:52:23;;;;;;;;;18.75;16.75;;;;;5.49;93.93;101665.72;4952353;28;11578;-65
2023/12/27 06:54:50;;;;;;;;;17.75;16.00;;;;;5.56;94.00;101671.34;4952379;28;12278;-64
2023/12/27 06:57:16;;;;;;;;;16.25;13.75;;;;;5.59;93.69;101671.03;4952582;28;11554;-64
2023/12/27 06:59:43;;;;;;;;;15.00;12.00;;;;;5.61;93.67;101666.41;4952562;28;11577;-65
2023/12/27 07:02:09;;;;;;;;;16.00;15.50;;;;;5.60;94.18;101656.72;4950598;28;11552;-66
2023/12/27 07:04:37;;;;;;;;;15.25;12.25;;;;;5.54;93.86;101651.94;4952207;28;11612;-65
2023/12/27 07:07:04;;;;;;;;;18.75;15.00;;;;;5.54;94.18;101646.59;4935084;28;11563;-64
2023/12/27 07:09:31;;;;;;;;;19.25;16.25;;;;;5.58;94.39;101635.47;4951727;28;11589;-65
2023/12/27 07:11:57;;;;;;;;;22.00;14.25;;;;;5.63;94.60;101635.03;4952395;28;11555;-65
2023/12/27 07:14:24;;;;;;;;;18.25;15.00;;;;;5.55;94.38;101635.78;4951406;28;11572;-64
2023/12/27 07:16:50;;;;;;;;;16.00;14.00;;;;;5.57;94.42;101625.78;4949995;28;11597;-65
2023/12/27 07:19:17;;;;;;;;;15.50;15.50;;;;;5.54;94.40;101631.41;4949195;28;11569;-65
2023/12/27 07:21:43;;;;;;;;;17.25;14.25;;;;;5.52;95.05;101619.19;4951892;28;11573;-66
2023/12/27 07:24:10;;;;;;;;;13.00;12.00;;;;;5.58;95.20;101623.94;4934568;28;11554;-65
2023/12/27 07:26:37;;;;;;;;;12.50;11.50;;;;;5.56;95.27;101617.94;4951904;28;11543;-65
2023/12/27 07:29:04;;;;;;;;;17.75;15.25;;;;;5.61;95.84;101615.66;4952379;28;11724;-67
2023/12/27 07:31:30;;;;;;;;;15.75;12.75;;;;;5.65;95.58;101609.06;4950681;28;11558;-65
2023/12/27 07:33:57;;;;;;;;;20.75;17.75;;;;;5.63;95.07;101606.53;4949827;28;11553;-65
2023/12/27 07:36:24;;;;;;;;;15.00;11.00;;;;;5.65;95.28;101601.03;4951059;28;11572;-65
2023/12/27 07:38:50;;;;;;;;;15.75;15.00;;;;;5.62;95.17;101609.31;4933689;29;11546;-64
2023/12/27 07:41:17;;;;;;;;;15.50;12.25;;;;;5.61;95.18;101608.50;4951226;28;11589;-66
2023/12/27 07:43:44;;;;;;;;;17.50;14.00;;;;;5.62;95.23;101601.31;4952032;29;11561;-66
2023/12/27 07:46:10;;;;;;;;;10.00;10.00;;;;;5.72;95.92;101601.31;4950225;28;11654;-69
2023/12/27 07:48:37;;;;;;;;;9.00;9.00;;;;;5.71;95.16;101600.44;4951253;29;12231;-67
2023/12/27 07:51:03;;;;;;;;;14.50;14.50;;;;;5.61;95.56;101599.63;4950689;28;11563;-66
2023/12/27 07:53:32;;;;;;;;;14.00;14.00;;;;;5.57;95.50;101587.56;4948944;29;11558;-67
2023/12/27 07:55:59;;;;;;;;;15.75;13.75;;;;;5.61;96.62;101587.13;4951324;28;12279;-63
2023/12/27 07:58:25;;;;;;;;;25.25;19.50;;;;;5.61;96.51;101572.94;4949922;28;11541;-65
2023/12/27 08:00:53;;;;;;;;;16.75;16.50;;;;;5.57;96.69;101571.53;4933928;29;11646;-64
2023/12/27 08:03:19;;;;;;;;;17.75;15.00;;;;;5.63;96.84;101565.59;4950060;29;11564;-64
2023/12/27 08:05:47;;;;;;;;;12.00;12.00;;;;;5.70;96.67;101569.38;4951717;29;11659;-65
2023/12/27 08:08:13;;;;;;;;;20.50;17.00;;;;;5.73;97.25;101574.44;4950901;29;11554;-64
2023/12/27 08:10:40;;;;;;;;;15.00;13.75;;;;;5.80;97.23;101575.56;4951782;29;11548;-65
2023/12/27 08:13:07;;;;;;;;;15.50;13.00;;;;;5.72;97.00;101570.09;4950996;29;11545;-66
2023/12/27 08:15:35;;;;;;;;;17.25;15.00;;;;;5.69;97.29;101565.03;4936268;28;11556;-66
2023/12/27 08:18:03;;;;;;;;;19.25;16.50;;;;;5.68;98.20;101571.38;4954450;28;11575;-64
2023/12/27 08:20:31;;;;;;;;;11.75;11.00;;;;;5.70;97.58;101567.56;4952225;28;11567;-64
2023/12/27 08:23:00;;;;;;;;;19.25;15.00;;;;;5.74;98.61;101559.25;4937005;28;11659;-64
2023/12/27 08:25:26;;;;;;;;;16.00;13.25;;;;;5.75;98.42;101563.59;4955117;28;11564;-65
2023/12/27 08:27:53;;;;;;;;;12.00;12.00;;;;;5.74;98.57;101545.91;4947710;28;11585;-66
2023/12/27 08:30:19;;;;;;;;;13.00;13.00;;;;;5.79;99.01;101548.97;4937066;28;11547;-65
2023/12/27 08:32:46;;;;;;;;;18.50;13.00;;;;;5.77;98.72;101543.78;4953147;28;11677;-65
2023/12/27 08:35:13;;;;;;;;;10.00;8.75;;;;;5.80;98.79;101532.81;4937635;28;12200;-65
2023/12/27 08:37:43;;;;;;;;;18.00;9.00;;;;;5.84;98.65;101528.88;4955031;28;11540;-64
2023/12/27 08:40:10;;;;;;;;;16.50;15.25;;;;;5.82;98.73;101520.13;4954157;28;11600;-65
2023/12/27 08:42:36;;;;;;;;;12.75;12.75;;;;;5.79;99.23;101516.91;4936002;28;11577;-65
2023/12/27 08:45:04;;;;;;;;;21.25;17.75;;;;;5.81;99.55;101507.78;4953165;28;11664;-66
2023/12/27 08:47:30;;;;;;;;;8.75;8.75;;;;;5.83;99.69;101510.28;4936144;28;11562;-65
2023/12/27 08:49:57;;;;;;;;;12.75;12.75;;;;;5.87;99.96;101499.16;4937372;28;11493;-63
2023/12/27 08:52:26;;;;;;;;;16.00;12.25;;;;;5.88;99.38;101492.00;4954730;28;11689;-66
2023/12/27 08:54:53;;;;;;;;;13.75;12.75;;;;;5.90;99.28;101487.34;4954283;28;11613;-65
2023/12/27 08:57:19;;;;;;;;;9.25;9.25;;;;;5.91;99.77;101484.53;4950093;28;11664;-66
2023/12/27 08:59:46;;;;;;;;;11.75;10.75;;;;;5.91;99.88;101475.66;4945813;28;11083;-66
2023/12/27 09:02:12;;;;;;;;;10.00;9.50;;;;;5.92;99.86;101483.56;4952495;28;11544;-65
2023/12/27 09:04:39;;;;;;;;;10.25;9.50;;;;;5.97;100.00;101468.94;4953034;28;11272;-64
2023/12/27 09:07:06;;;;;;;;;12.50;12.25;;;;;5.98;100.00;101471.44;4949933;28;11549;-65
2023/12/27 09:09:32;;;;;;;;;3.00;2.50;;;;;6.00;100.00;101477.50;4951324;28;11543;-66
2023/12/27 09:11:59;;;;;;;;;12.50;10.25;;;;;6.03;100.00;101477.16;4973398;28;12021;-63
2023/12/27 09:14:26;;;;;;;;;9.00;9.00;;;;;6.06;100.00;101473.38;4949594;28;11532;-66
2023/12/27 09:16:52;;;;;;;;;10.50;10.50;;;;;6.09;100.00;101470.41;4931762;28;11510;-65
2023/12/27 09:19:19;;;;;;;;;13.00;12.50;;;;;6.10;100.00;101461.41;4935510;28;11526;-65
2023/12/27 09:21:46;;;;;;;;;7.50;6.00;;;;;6.14;100.00;101462.78;4946590;28;11314;-65
2023/12/27 09:24:13;;;;;;;;;10.50;8.75;;;;;6.15;100.00;101467.13;4944509;28;11346;-68
2023/12/27 09:26:40;;;;;;;;;12.75;11.75;;;;;6.21;100.00;101465.69;4955250;28;11580;-64
2023/12/27 09:29:09;;;;;;;;;10.50;9.50;;;;;6.21;100.00;101455.84;4947738;28;11289;-67
2023/12/27 09:31:36;;;;;;;;;11.25;9.00;;;;;6.25;100.00;101446.53;4936038;28;11311;-67
2023/12/27 09:34:03;;;;;;;;;9.00;9.00;;;;;6.36;100.00;101453.47;4950946;28;11566;-68
2023/12/27 09:36:29;;;;;;;;;10.75;9.50;;;;;6.41;100.00;101452.03;4948991;28;11346;-67
2023/12/27 09:38:56;;;;;;;;;8.75;8.75;;;;;6.42;100.00;101453.72;4953508;28;11518;-67
2023/12/27 09:41:22;;;;;;;;;11.25;11.00;;;;;6.42;100.00;101450.22;4950912;28;11168;-67
2023/12/27 09:43:52;;;;;;;;;10.25;9.25;;;;;6.48;100.00;101438.88;4951946;28;11220;-68
2023/12/27 09:46:19;;;;;;;;;13.00;10.75;;;;;6.54;100.00;101432.94;4933846;28;11419;-67
2023/12/27 09:48:45;;;;;;;;;15.25;13.50;;;;;6.51;100.00;101433.22;4952677;28;11229;-68
2023/12/27 09:51:13;;;;;;;;;9.00;9.00;;;;;6.55;100.00;101429.25;4948942;28;11249;-68
2023/12/27 09:53:43;;;;;;;;;12.25;11.00;;;;;6.58;100.00;101428.97;4949246;28;11120;-68
2023/12/27 09:56:10;;;;;;;;;13.50;13.00;;;;;6.58;100.00;101420.09;4930659;28;11129;-68
2023/12/27 09:58:37;;;;;;;;;10.25;10.25;;;;;6.60;100.00;101412.75;4950363;28;11168;-66
2023/12/27 10:01:05;;;;;;;;;9.75;9.50;;;;;6.57;100.00;101410.41;4951149;28;11083;-67
2023/12/27 10:03:40;;;;;;;;;13.75;12.50;;;;;6.58;100.00;101399.53;4953222;28;11076;-68
2023/12/27 10:06:37;;;;;;;;;14.25;13.00;;;;;6.63;100.00;101407.09;4951478;28;11188;-68
2023/12/27 10:09:05;;;;;;;;;12.50;10.50;;;;;6.63;100.00;101405.25;4948337;28;11385;-68
2023/12/27 10:11:33;;;;;;;;;14.00;14.00;;;;;6.69;100.00;101393.94;4947875;28;11155;-67
2023/12/27 10:13:59;;;;;;;;;9.00;9.00;;;;;6.75;100.00;101405.84;4950671;28;11061;-67
2023/12/27 10:16:26;;;;;;;;;13.50;12.25;;;;;6.75;100.00;101402.34;4933260;28;11730;-69
2023/12/27 10:18:53;;;;;;;;;12.00;12.00;;;;;6.76;100.00;101399.50;4934734;28;11284;-66
2023/12/27 10:21:20;;;;;;;;;9.25;9.25;;;;;6.83;100.00;101407.75;4951845;28;11058;-68
2023/12/27 10:23:47;;;;;;;;;12.00;12.00;;;;;6.82;100.00;101398.88;4951513;28;11998;-67
2023/12/27 10:26:13;;;;;;;;;13.25;13.00;;;;;6.81;100.00;101386.50;4934800;28;11357;-67
2023/12/27 10:28:40;;;;;;;;;12.00;12.00;;;;;6.87;100.00;101391.22;4952523;28;12002;-67
2023/12/27 10:31:06;;;;;;;;;18.25;14.25;;;;;6.89;100.00;101383.91;4946146;28;11112;-70
2023/12/27 10:33:44;;;;;;;;;17.00;15.00;;;;;6.94;100.00;101381.59;4921923;28;11954;-69
2023/12/27 10:36:11;;;;;;;;;22.50;19.00;;;;;6.89;100.00;101359.81;4945843;28;11160;-68
2023/12/27 10:38:37;;;;;;;;;15.75;14.00;;;;;6.93;100.00;101363.00;4946766;28;11305;-68
2023/12/27 10:41:06;;;;;;;;;19.25;17.00;;;;;6.98;100.00;101354.50;4959778;28;12038;-67
2023/12/27 10:43:33;;;;;;;;;18.50;13.75;;;;;6.99;100.00;101335.59;4941281;28;11410;-68
2023/12/27 10:46:06;;;;;;;;;17.75;15.75;;;;;7.00;100.00;101333.75;4938161;28;11980;-66
2023/12/27 10:48:33;;;;;;;;;15.50;13.75;;;;;6.94;100.00;101336.09;4970707;28;11137;-66
2023/12/27 10:51:00;;;;;;;;;19.25;17.75;;;;;7.01;100.00;101343.47;4943582;28;11179;-68
2023/12/27 10:53:29;;;;;;;;;16.75;16.50;;;;;7.03;100.00;101342.31;4939710;28;11191;-67
2023/12/27 10:55:58;;;;;;;;;20.25;17.25;;;;;7.06;100.00;101341.16;4953999;28;11194;-67
2023/12/27 10:58:25;;;;;;;;;17.75;16.50;;;;;7.12;100.00;101337.84;4947201;28;11116;-66
2023/12/27 11:00:53;;;;;;;;;16.00;14.00;;;;;7.14;100.00;101331.34;4930459;28;11185;-69
2023/12/27 11:03:21;;;;;;;;;22.00;17.75;;;;;7.12;100.00;101338.69;4936888;28;10884;-67
2023/12/27 11:05:50;;;;;;;;;14.25;14.00;;;;;7.18;100.00;101334.53;4953641;28;11081;-67
2023/12/27 11:08:17;;;;;;;;;15.00;11.75;;;;;7.24;100.00;101327.69;4954994;28;10871;-67
2023/12/27 11:10:45;;;;;;;;;16.50;15.50;;;;;7.25;100.00;101308.81;4955240;28;11084;-67
2023/12/27 11:13:15;;;;;;;;;22.00;14.75;;;;;7.29;100.00;101288.75;4931558;28;11081;-68
2023/12/27 11:15:45;;;;;;;;;15.00;13.25;;;;;7.34;100.00;101291.75;4951741;28;11097;-69